sensor_id;sensor_type;location;lat;lon;timestamp;P1;durP1;ratioP1;P2;durP2;ratioP2
37411;SDS011;23278;52.110;6.050;2022-08-19T00:00:17;1.83;;;1.00;;
37411;SDS011;23278;52.110;6.050;2022-08-19T00:02:44;1.73;;;1.33;;
37411;SDS011;23278;52.110;6.050;2022-08-19T00:05:11;2.47;;;1.40;;
37411;SDS011;23278;52.110;6.050;2022-08-19T00:07:38;1.25;;;1.00;;
37411;SDS011;23278;52.110;6.050;2022-08-19T00:10:05;1.35;;;1.08;;
37411;SDS011;23278;52.110;6.050;2022-08-19T00:12:33;1.40;;;1.13;;
37411;SDS011;23278;52.110;6.050;2022-08-19T00:14:59;1.73;;;1.00;;
37411;SDS011;23278;52.110;6.050;2022-08-19T00:17:25;0.80;;;0.70;;
37411;SDS011;23278;52.110;6.050;2022-08-19T00:19:51;2.13;;;0.90;;
37411;SDS011;23278;52.110;6.050;2022-08-19T00:22:17;1.30;;;1.08;;
37411;SDS011;23278;52.110;6.050;2022-08-19T00:24:44;1.30;;;1.10;;
37411;SDS011;23278;52.110;6.050;2022-08-19T00:27:11;2.47;;;1.23;;
37411;SDS011;23278;52.110;6.050;2022-08-19T00:29:37;1.00;;;0.90;;
37411;SDS011;23278;52.110;6.050;2022-08-19T00:32:03;1.63;;;1.02;;
37411;SDS011;23278;52.110;6.050;2022-08-19T00:34:30;2.17;;;1.08;;
37411;SDS011;23278;52.110;6.050;2022-08-19T00:36:56;2.65;;;1.10;;
37411;SDS011;23278;52.110;6.050;2022-08-19T00:39:22;1.33;;;1.17;;
37411;SDS011;23278;52.110;6.050;2022-08-19T00:41:48;4.65;;;1.00;;
37411;SDS011;23278;52.110;6.050;2022-08-19T00:44:17;1.50;;;1.13;;
37411;SDS011;23278;52.110;6.050;2022-08-19T00:46:46;2.08;;;1.13;;
37411;SDS011;23278;52.110;6.050;2022-08-19T00:49:16;2.15;;;1.30;;
37411;SDS011;23278;52.110;6.050;2022-08-19T00:51:48;1.30;;;1.10;;
37411;SDS011;23278;52.110;6.050;2022-08-19T00:54:18;1.30;;;1.10;;
37411;SDS011;23278;52.110;6.050;2022-08-19T00:56:44;1.33;;;1.15;;
37411;SDS011;23278;52.110;6.050;2022-08-19T00:59:10;2.47;;;1.30;;
37411;SDS011;23278;52.110;6.050;2022-08-19T01:01:37;2.08;;;1.10;;
37411;SDS011;23278;52.110;6.050;2022-08-19T01:04:04;1.38;;;1.08;;
37411;SDS011;23278;52.110;6.050;2022-08-19T01:06:31;1.38;;;1.05;;
37411;SDS011;23278;52.110;6.050;2022-08-19T01:08:59;2.15;;;1.20;;
37411;SDS011;23278;52.110;6.050;2022-08-19T01:11:29;2.40;;;1.23;;
37411;SDS011;23278;52.110;6.050;2022-08-19T01:13:56;3.25;;;1.70;;
37411;SDS011;23278;52.110;6.050;2022-08-19T01:16:24;2.28;;;1.90;;
37411;SDS011;23278;52.110;6.050;2022-08-19T01:18:51;1.40;;;1.30;;
37411;SDS011;23278;52.110;6.050;2022-08-19T01:21:23;1.70;;;1.50;;
37411;SDS011;23278;52.110;6.050;2022-08-19T01:26:26;1.75;;;1.02;;
37411;SDS011;23278;52.110;6.050;2022-08-19T01:28:54;3.53;;;1.70;;
37411;SDS011;23278;52.110;6.050;2022-08-19T01:31:23;1.90;;;1.65;;
37411;SDS011;23278;52.110;6.050;2022-08-19T01:33:51;3.08;;;1.75;;
37411;SDS011;23278;52.110;6.050;2022-08-19T01:36:24;1.75;;;1.40;;
37411;SDS011;23278;52.110;6.050;2022-08-19T01:39:01;1.80;;;1.58;;
37411;SDS011;23278;52.110;6.050;2022-08-19T01:41:30;2.30;;;2.08;;
37411;SDS011;23278;52.110;6.050;2022-08-19T01:43:56;3.38;;;1.92;;
37411;SDS011;23278;52.110;6.050;2022-08-19T01:46:22;1.75;;;1.60;;
37411;SDS011;23278;52.110;6.050;2022-08-19T01:48:48;2.65;;;1.83;;
37411;SDS011;23278;52.110;6.050;2022-08-19T01:51:14;1.88;;;1.70;;
37411;SDS011;23278;52.110;6.050;2022-08-19T01:53:41;3.72;;;1.67;;
37411;SDS011;23278;52.110;6.050;2022-08-19T01:56:07;2.72;;;2.00;;
37411;SDS011;23278;52.110;6.050;2022-08-19T01:58:35;3.22;;;2.00;;
37411;SDS011;23278;52.110;6.050;2022-08-19T02:01:05;2.35;;;1.60;;
37411;SDS011;23278;52.110;6.050;2022-08-19T02:03:33;2.53;;;1.80;;
37411;SDS011;23278;52.110;6.050;2022-08-19T02:06:00;5.22;;;2.90;;
37411;SDS011;23278;52.110;6.050;2022-08-19T02:08:28;3.17;;;2.60;;
37411;SDS011;23278;52.110;6.050;2022-08-19T02:10:55;2.38;;;2.08;;
37411;SDS011;23278;52.110;6.050;2022-08-19T02:13:22;3.22;;;2.53;;
37411;SDS011;23278;52.110;6.050;2022-08-19T02:15:48;3.30;;;2.72;;
37411;SDS011;23278;52.110;6.050;2022-08-19T02:18:14;2.67;;;2.47;;
37411;SDS011;23278;52.110;6.050;2022-08-19T02:20:42;4.88;;;2.35;;
37411;SDS011;23278;52.110;6.050;2022-08-19T02:23:09;2.50;;;2.25;;
37411;SDS011;23278;52.110;6.050;2022-08-19T02:25:37;3.25;;;2.88;;
37411;SDS011;23278;52.110;6.050;2022-08-19T02:28:04;3.55;;;2.95;;
37411;SDS011;23278;52.110;6.050;2022-08-19T02:30:30;3.47;;;3.17;;
37411;SDS011;23278;52.110;6.050;2022-08-19T02:32:56;3.75;;;2.50;;
37411;SDS011;23278;52.110;6.050;2022-08-19T02:35:23;2.40;;;2.08;;
37411;SDS011;23278;52.110;6.050;2022-08-19T02:37:49;2.45;;;2.25;;
37411;SDS011;23278;52.110;6.050;2022-08-19T02:40:34;3.80;;;2.50;;
37411;SDS011;23278;52.110;6.050;2022-08-19T02:43:04;3.08;;;2.05;;
37411;SDS011;23278;52.110;6.050;2022-08-19T02:45:35;2.42;;;2.22;;
37411;SDS011;23278;52.110;6.050;2022-08-19T02:48:02;3.97;;;3.47;;
37411;SDS011;23278;52.110;6.050;2022-08-19T02:50:30;4.18;;;3.78;;
37411;SDS011;23278;52.110;6.050;2022-08-19T02:52:56;2.83;;;2.63;;
37411;SDS011;23278;52.110;6.050;2022-08-19T02:55:22;2.85;;;2.47;;
37411;SDS011;23278;52.110;6.050;2022-08-19T02:57:48;2.88;;;2.58;;
37411;SDS011;23278;52.110;6.050;2022-08-19T03:00:14;3.28;;;2.17;;
37411;SDS011;23278;52.110;6.050;2022-08-19T03:02:50;2.50;;;2.30;;
37411;SDS011;23278;52.110;6.050;2022-08-19T03:05:15;2.60;;;2.10;;
37411;SDS011;23278;52.110;6.050;2022-08-19T03:07:41;2.08;;;1.42;;
37411;SDS011;23278;52.110;6.050;2022-08-19T03:10:07;2.33;;;1.92;;
37411;SDS011;23278;52.110;6.050;2022-08-19T03:12:37;2.55;;;2.35;;
37411;SDS011;23278;52.110;6.050;2022-08-19T03:15:04;3.60;;;2.20;;
37411;SDS011;23278;52.110;6.050;2022-08-19T03:17:33;3.78;;;2.60;;
37411;SDS011;23278;52.110;6.050;2022-08-19T03:19:59;2.15;;;1.90;;
37411;SDS011;23278;52.110;6.050;2022-08-19T03:22:25;2.47;;;2.03;;
37411;SDS011;23278;52.110;6.050;2022-08-19T03:24:51;1.90;;;1.70;;
37411;SDS011;23278;52.110;6.050;2022-08-19T03:27:17;11.95;;;2.28;;
37411;SDS011;23278;52.110;6.050;2022-08-19T03:29:43;2.38;;;2.17;;
37411;SDS011;23278;52.110;6.050;2022-08-19T03:32:09;2.10;;;1.80;;
37411;SDS011;23278;52.110;6.050;2022-08-19T03:34:36;2.13;;;1.92;;
37411;SDS011;23278;52.110;6.050;2022-08-19T03:37:07;1.92;;;1.73;;
37411;SDS011;23278;52.110;6.050;2022-08-19T03:39:36;3.60;;;1.73;;
37411;SDS011;23278;52.110;6.050;2022-08-19T03:42:02;4.40;;;2.10;;
37411;SDS011;23278;52.110;6.050;2022-08-19T03:44:29;2.90;;;2.13;;
37411;SDS011;23278;52.110;6.050;2022-08-19T03:46:59;2.38;;;1.95;;
37411;SDS011;23278;52.110;6.050;2022-08-19T03:49:26;2.47;;;2.28;;
37411;SDS011;23278;52.110;6.050;2022-08-19T03:51:55;3.42;;;3.13;;
37411;SDS011;23278;52.110;6.050;2022-08-19T03:54:22;2.67;;;2.47;;
37411;SDS011;23278;52.110;6.050;2022-08-19T03:56:51;5.00;;;2.38;;
37411;SDS011;23278;52.110;6.050;2022-08-19T03:59:23;2.58;;;2.30;;
37411;SDS011;23278;52.110;6.050;2022-08-19T04:01:52;2.50;;;2.30;;
37411;SDS011;23278;52.110;6.050;2022-08-19T04:04:19;2.72;;;2.53;;
37411;SDS011;23278;52.110;6.050;2022-08-19T04:06:47;2.85;;;2.53;;
37411;SDS011;23278;52.110;6.050;2022-08-19T04:09:13;3.05;;;2.75;;
37411;SDS011;23278;52.110;6.050;2022-08-19T04:11:41;2.53;;;2.13;;
37411;SDS011;23278;52.110;6.050;2022-08-19T04:14:12;2.97;;;2.65;;
37411;SDS011;23278;52.110;6.050;2022-08-19T04:16:41;3.25;;;2.80;;
37411;SDS011;23278;52.110;6.050;2022-08-19T04:19:10;3.17;;;2.80;;
37411;SDS011;23278;52.110;6.050;2022-08-19T04:21:36;2.85;;;2.20;;
37411;SDS011;23278;52.110;6.050;2022-08-19T04:24:02;2.33;;;2.13;;
37411;SDS011;23278;52.110;6.050;2022-08-19T04:26:31;2.40;;;2.20;;
37411;SDS011;23278;52.110;6.050;2022-08-19T04:28:59;2.53;;;2.22;;
37411;SDS011;23278;52.110;6.050;2022-08-19T04:31:26;3.28;;;2.58;;
37411;SDS011;23278;52.110;6.050;2022-08-19T04:33:59;2.97;;;2.05;;
37411;SDS011;23278;52.110;6.050;2022-08-19T04:36:30;3.67;;;3.33;;
37411;SDS011;23278;52.110;6.050;2022-08-19T04:38:59;2.27;;;2.07;;
37411;SDS011;23278;52.110;6.050;2022-08-19T04:41:28;5.18;;;2.78;;
37411;SDS011;23278;52.110;6.050;2022-08-19T04:44:13;3.03;;;2.75;;
37411;SDS011;23278;52.110;6.050;2022-08-19T04:46:39;2.70;;;2.40;;
37411;SDS011;23278;52.110;6.050;2022-08-19T04:49:06;3.17;;;2.78;;
37411;SDS011;23278;52.110;6.050;2022-08-19T04:51:33;3.45;;;2.80;;
37411;SDS011;23278;52.110;6.050;2022-08-19T04:54:03;2.28;;;2.00;;
37411;SDS011;23278;52.110;6.050;2022-08-19T04:56:29;3.47;;;3.17;;
37411;SDS011;23278;52.110;6.050;2022-08-19T04:58:56;3.17;;;2.42;;
37411;SDS011;23278;52.110;6.050;2022-08-19T05:01:23;3.25;;;2.50;;
37411;SDS011;23278;52.110;6.050;2022-08-19T05:03:51;3.22;;;2.08;;
37411;SDS011;23278;52.110;6.050;2022-08-19T05:06:18;3.05;;;2.28;;
37411;SDS011;23278;52.110;6.050;2022-08-19T05:08:45;1.80;;;1.55;;
37411;SDS011;23278;52.110;6.050;2022-08-19T05:11:14;2.28;;;2.08;;
37411;SDS011;23278;52.110;6.050;2022-08-19T05:13:48;2.22;;;2.03;;
37411;SDS011;23278;52.110;6.050;2022-08-19T05:16:15;2.20;;;2.00;;
37411;SDS011;23278;52.110;6.050;2022-08-19T05:18:43;3.00;;;2.15;;
37411;SDS011;23278;52.110;6.050;2022-08-19T05:21:29;3.00;;;2.80;;
37411;SDS011;23278;52.110;6.050;2022-08-19T05:24:14;2.78;;;2.35;;
37411;SDS011;23278;52.110;6.050;2022-08-19T05:26:42;2.50;;;2.30;;
37411;SDS011;23278;52.110;6.050;2022-08-19T05:29:11;2.40;;;2.20;;
37411;SDS011;23278;52.110;6.050;2022-08-19T05:31:39;2.67;;;2.47;;
37411;SDS011;23278;52.110;6.050;2022-08-19T05:34:05;3.00;;;2.70;;
37411;SDS011;23278;52.110;6.050;2022-08-19T05:36:41;3.25;;;2.95;;
37411;SDS011;23278;52.110;6.050;2022-08-19T05:39:10;4.25;;;3.85;;
37411;SDS011;23278;52.110;6.050;2022-08-19T05:41:45;3.97;;;3.60;;
37411;SDS011;23278;52.110;6.050;2022-08-19T05:44:13;4.95;;;4.55;;
37411;SDS011;23278;52.110;6.050;2022-08-19T05:46:40;5.18;;;4.68;;
37411;SDS011;23278;52.110;6.050;2022-08-19T05:49:12;5.53;;;5.03;;
37411;SDS011;23278;52.110;6.050;2022-08-19T05:51:39;4.78;;;4.28;;
37411;SDS011;23278;52.110;6.050;2022-08-19T05:54:05;5.45;;;4.93;;
37411;SDS011;23278;52.110;6.050;2022-08-19T05:56:33;5.30;;;4.90;;
37411;SDS011;23278;52.110;6.050;2022-08-19T05:59:02;6.93;;;6.13;;
37411;SDS011;23278;52.110;6.050;2022-08-19T06:01:29;7.18;;;6.22;;
37411;SDS011;23278;52.110;6.050;2022-08-19T06:03:55;6.18;;;5.68;;
37411;SDS011;23278;52.110;6.050;2022-08-19T06:06:21;7.05;;;6.40;;
37411;SDS011;23278;52.110;6.050;2022-08-19T06:08:47;10.63;;;8.68;;
37411;SDS011;23278;52.110;6.050;2022-08-19T06:11:20;10.00;;;9.05;;
37411;SDS011;23278;52.110;6.050;2022-08-19T06:14:07;10.48;;;9.52;;
37411;SDS011;23278;52.110;6.050;2022-08-19T06:16:36;12.55;;;10.95;;
37411;SDS011;23278;52.110;6.050;2022-08-19T06:19:04;12.85;;;11.57;;
37411;SDS011;23278;52.110;6.050;2022-08-19T06:21:36;10.35;;;8.75;;
37411;SDS011;23278;52.110;6.050;2022-08-19T06:24:07;8.52;;;7.72;;
37411;SDS011;23278;52.110;6.050;2022-08-19T06:26:36;13.98;;;11.40;;
37411;SDS011;23278;52.110;6.050;2022-08-19T06:29:04;12.82;;;11.48;;
37411;SDS011;23278;52.110;6.050;2022-08-19T06:31:32;13.45;;;12.10;;
37411;SDS011;23278;52.110;6.050;2022-08-19T06:34:00;13.55;;;12.15;;
37411;SDS011;23278;52.110;6.050;2022-08-19T06:36:38;9.82;;;8.93;;
37411;SDS011;23278;52.110;6.050;2022-08-19T06:39:08;8.85;;;8.05;;
37411;SDS011;23278;52.110;6.050;2022-08-19T06:41:40;9.30;;;8.35;;
37411;SDS011;23278;52.110;6.050;2022-08-19T06:44:16;13.50;;;11.30;;
37411;SDS011;23278;52.110;6.050;2022-08-19T06:46:44;17.35;;;15.65;;
37411;SDS011;23278;52.110;6.050;2022-08-19T06:49:10;17.77;;;14.80;;
37411;SDS011;23278;52.110;6.050;2022-08-19T06:51:40;16.20;;;13.43;;
37411;SDS011;23278;52.110;6.050;2022-08-19T06:54:07;22.13;;;18.55;;
37411;SDS011;23278;52.110;6.050;2022-08-19T06:56:33;22.55;;;19.02;;
37411;SDS011;23278;52.110;6.050;2022-08-19T06:59:00;19.73;;;16.88;;
37411;SDS011;23278;52.110;6.050;2022-08-19T07:01:33;30.60;;;22.52;;
37411;SDS011;23278;52.110;6.050;2022-08-19T07:04:03;24.30;;;18.85;;
37411;SDS011;23278;52.110;6.050;2022-08-19T07:06:33;22.13;;;17.38;;
37411;SDS011;23278;52.110;6.050;2022-08-19T07:09:00;17.67;;;15.88;;
37411;SDS011;23278;52.110;6.050;2022-08-19T07:11:26;15.27;;;13.70;;
37411;SDS011;23278;52.110;6.050;2022-08-19T07:13:52;17.67;;;14.80;;
37411;SDS011;23278;52.110;6.050;2022-08-19T07:16:18;16.48;;;14.68;;
37411;SDS011;23278;52.110;6.050;2022-08-19T07:18:46;13.63;;;12.23;;
37411;SDS011;23278;52.110;6.050;2022-08-19T07:21:18;15.27;;;13.43;;
37411;SDS011;23278;52.110;6.050;2022-08-19T07:23:46;14.45;;;12.52;;
37411;SDS011;23278;52.110;6.050;2022-08-19T07:26:16;20.52;;;16.17;;
37411;SDS011;23278;52.110;6.050;2022-08-19T07:28:48;21.05;;;16.17;;
37411;SDS011;23278;52.110;6.050;2022-08-19T07:31:19;23.00;;;18.48;;
37411;SDS011;23278;52.110;6.050;2022-08-19T07:33:47;16.20;;;13.50;;
37411;SDS011;23278;52.110;6.050;2022-08-19T07:36:15;18.80;;;14.27;;
37411;SDS011;23278;52.110;6.050;2022-08-19T07:38:44;16.30;;;12.95;;
37411;SDS011;23278;52.110;6.050;2022-08-19T07:41:15;16.40;;;13.57;;
37411;SDS011;23278;52.110;6.050;2022-08-19T07:43:44;17.45;;;13.85;;
37411;SDS011;23278;52.110;6.050;2022-08-19T07:46:10;21.23;;;15.43;;
37411;SDS011;23278;52.110;6.050;2022-08-19T07:48:39;17.10;;;13.73;;
37411;SDS011;23278;52.110;6.050;2022-08-19T07:51:06;21.05;;;16.00;;
37411;SDS011;23278;52.110;6.050;2022-08-19T07:53:34;13.20;;;11.80;;
37411;SDS011;23278;52.110;6.050;2022-08-19T07:56:01;13.88;;;11.57;;
37411;SDS011;23278;52.110;6.050;2022-08-19T07:58:31;9.98;;;9.00;;
37411;SDS011;23278;52.110;6.050;2022-08-19T08:00:59;13.07;;;10.98;;
37411;SDS011;23278;52.110;6.050;2022-08-19T08:03:27;18.30;;;14.18;;
37411;SDS011;23278;52.110;6.050;2022-08-19T08:06:13;17.80;;;14.68;;
37411;SDS011;23278;52.110;6.050;2022-08-19T08:08:59;23.88;;;17.25;;
37411;SDS011;23278;52.110;6.050;2022-08-19T08:11:43;25.00;;;19.27;;
37411;SDS011;23278;52.110;6.050;2022-08-19T08:14:22;22.02;;;18.73;;
37411;SDS011;23278;52.110;6.050;2022-08-19T08:16:51;20.15;;;16.25;;
37411;SDS011;23278;52.110;6.050;2022-08-19T08:19:18;16.92;;;14.77;;
37411;SDS011;23278;52.110;6.050;2022-08-19T08:21:46;20.35;;;14.75;;
37411;SDS011;23278;52.110;6.050;2022-08-19T08:24:13;12.35;;;11.05;;
37411;SDS011;23278;52.110;6.050;2022-08-19T08:26:40;21.85;;;17.42;;
37411;SDS011;23278;52.110;6.050;2022-08-19T08:29:06;20.42;;;15.85;;
37411;SDS011;23278;52.110;6.050;2022-08-19T08:31:34;20.60;;;16.90;;
37411;SDS011;23278;52.110;6.050;2022-08-19T08:34:00;14.77;;;13.02;;
37411;SDS011;23278;52.110;6.050;2022-08-19T08:36:26;16.25;;;14.25;;
37411;SDS011;23278;52.110;6.050;2022-08-19T08:38:52;19.17;;;14.43;;
37411;SDS011;23278;52.110;6.050;2022-08-19T08:43:48;20.15;;;15.27;;
37411;SDS011;23278;52.110;6.050;2022-08-19T08:46:29;17.25;;;15.35;;
37411;SDS011;23278;52.110;6.050;2022-08-19T08:56:57;20.45;;;15.85;;
37411;SDS011;23278;52.110;6.050;2022-08-19T08:59:33;17.52;;;13.48;;
37411;SDS011;23278;52.110;6.050;2022-08-19T09:02:01;17.38;;;15.18;;
37411;SDS011;23278;52.110;6.050;2022-08-19T09:04:27;16.23;;;14.55;;
37411;SDS011;23278;52.110;6.050;2022-08-19T09:09:42;20.25;;;16.17;;
37411;SDS011;23278;52.110;6.050;2022-08-19T09:12:17;15.02;;;12.90;;
37411;SDS011;23278;52.110;6.050;2022-08-19T09:17:26;17.10;;;15.32;;
37411;SDS011;23278;52.110;6.050;2022-08-19T09:22:47;16.08;;;14.18;;
37411;SDS011;23278;52.110;6.050;2022-08-19T09:25:15;14.45;;;12.82;;
37411;SDS011;23278;52.110;6.050;2022-08-19T09:27:44;13.82;;;12.45;;
37411;SDS011;23278;52.110;6.050;2022-08-19T09:30:14;14.10;;;12.65;;
37411;SDS011;23278;52.110;6.050;2022-08-19T09:32:43;8.60;;;7.40;;
37411;SDS011;23278;52.110;6.050;2022-08-19T09:35:09;8.30;;;7.53;;
37411;SDS011;23278;52.110;6.050;2022-08-19T09:37:36;10.82;;;9.77;;
37411;SDS011;23278;52.110;6.050;2022-08-19T09:40:03;11.05;;;10.02;;
37411;SDS011;23278;52.110;6.050;2022-08-19T09:42:30;8.45;;;7.45;;
37411;SDS011;23278;52.110;6.050;2022-08-19T09:44:56;9.45;;;8.55;;
37411;SDS011;23278;52.110;6.050;2022-08-19T09:47:22;13.93;;;12.50;;
37411;SDS011;23278;52.110;6.050;2022-08-19T09:49:47;13.57;;;10.68;;
37411;SDS011;23278;52.110;6.050;2022-08-19T09:52:15;9.85;;;9.02;;
37411;SDS011;23278;52.110;6.050;2022-08-19T09:54:42;11.50;;;10.30;;
37411;SDS011;23278;52.110;6.050;2022-08-19T09:57:09;6.70;;;6.03;;
37411;SDS011;23278;52.110;6.050;2022-08-19T09:59:35;6.60;;;6.05;;
37411;SDS011;23278;52.110;6.050;2022-08-19T10:02:00;8.13;;;7.32;;
37411;SDS011;23278;52.110;6.050;2022-08-19T10:04:26;7.15;;;6.45;;
37411;SDS011;23278;52.110;6.050;2022-08-19T10:07:12;8.40;;;7.63;;
37411;SDS011;23278;52.110;6.050;2022-08-19T10:09:38;12.02;;;10.73;;
37411;SDS011;23278;52.110;6.050;2022-08-19T10:12:06;12.35;;;11.15;;
37411;SDS011;23278;52.110;6.050;2022-08-19T10:14:33;11.93;;;10.70;;
37411;SDS011;23278;52.110;6.050;2022-08-19T10:17:00;10.48;;;8.43;;
37411;SDS011;23278;52.110;6.050;2022-08-19T10:19:28;8.60;;;7.70;;
37411;SDS011;23278;52.110;6.050;2022-08-19T10:22:02;9.07;;;8.02;;
37411;SDS011;23278;52.110;6.050;2022-08-19T10:24:29;8.50;;;7.60;;
37411;SDS011;23278;52.110;6.050;2022-08-19T10:26:56;18.52;;;12.82;;
37411;SDS011;23278;52.110;6.050;2022-08-19T10:29:22;14.00;;;12.60;;
37411;SDS011;23278;52.110;6.050;2022-08-19T10:31:48;12.55;;;11.25;;
37411;SDS011;23278;52.110;6.050;2022-08-19T10:34:14;17.63;;;13.07;;
37411;SDS011;23278;52.110;6.050;2022-08-19T10:36:40;12.65;;;9.02;;
37411;SDS011;23278;52.110;6.050;2022-08-19T10:39:07;9.77;;;8.82;;
37411;SDS011;23278;52.110;6.050;2022-08-19T10:41:36;31.13;;;13.32;;
37411;SDS011;23278;52.110;6.050;2022-08-19T10:44:04;9.13;;;8.27;;
37411;SDS011;23278;52.110;6.050;2022-08-19T10:46:33;8.45;;;6.70;;
37411;SDS011;23278;52.110;6.050;2022-08-19T10:49:02;11.73;;;9.50;;
37411;SDS011;23278;52.110;6.050;2022-08-19T10:51:30;7.60;;;6.90;;
37411;SDS011;23278;52.110;6.050;2022-08-19T10:54:15;8.50;;;6.57;;
37411;SDS011;23278;52.110;6.050;2022-08-19T10:56:42;6.63;;;5.88;;
37411;SDS011;23278;52.110;6.050;2022-08-19T10:59:21;6.53;;;5.93;;
37411;SDS011;23278;52.110;6.050;2022-08-19T11:01:50;8.55;;;5.95;;
37411;SDS011;23278;52.110;6.050;2022-08-19T11:04:17;6.55;;;5.72;;
37411;SDS011;23278;52.110;6.050;2022-08-19T11:06:45;7.63;;;6.40;;
37411;SDS011;23278;52.110;6.050;2022-08-19T11:09:14;7.68;;;6.35;;
37411;SDS011;23278;52.110;6.050;2022-08-19T11:11:44;5.18;;;4.50;;
37411;SDS011;23278;52.110;6.050;2022-08-19T11:14:12;6.07;;;4.47;;
37411;SDS011;23278;52.110;6.050;2022-08-19T11:16:41;3.47;;;3.07;;
37411;SDS011;23278;52.110;6.050;2022-08-19T11:19:08;4.20;;;3.40;;
37411;SDS011;23278;52.110;6.050;2022-08-19T11:21:37;3.50;;;3.00;;
37411;SDS011;23278;52.110;6.050;2022-08-19T11:24:06;6.60;;;3.70;;
37411;SDS011;23278;52.110;6.050;2022-08-19T11:26:34;4.47;;;3.00;;
37411;SDS011;23278;52.110;6.050;2022-08-19T11:29:02;4.53;;;4.13;;
37411;SDS011;23278;52.110;6.050;2022-08-19T11:31:30;4.53;;;3.88;;
37411;SDS011;23278;52.110;6.050;2022-08-19T11:33:59;5.05;;;4.40;;
37411;SDS011;23278;52.110;6.050;2022-08-19T11:36:27;6.55;;;4.72;;
37411;SDS011;23278;52.110;6.050;2022-08-19T11:38:53;4.63;;;3.22;;
37411;SDS011;23278;52.110;6.050;2022-08-19T11:41:20;5.93;;;3.78;;
37411;SDS011;23278;52.110;6.050;2022-08-19T11:43:49;5.30;;;3.80;;
37411;SDS011;23278;52.110;6.050;2022-08-19T11:46:16;4.13;;;3.72;;
37411;SDS011;23278;52.110;6.050;2022-08-19T11:48:42;2.90;;;2.17;;
37411;SDS011;23278;52.110;6.050;2022-08-19T11:51:10;4.57;;;3.20;;
37411;SDS011;23278;52.110;6.050;2022-08-19T11:53:41;3.78;;;2.50;;
37411;SDS011;23278;52.110;6.050;2022-08-19T11:56:07;4.38;;;3.42;;
37411;SDS011;23278;52.110;6.050;2022-08-19T11:58:35;4.43;;;2.63;;
37411;SDS011;23278;52.110;6.050;2022-08-19T12:01:04;3.65;;;2.75;;
37411;SDS011;23278;52.110;6.050;2022-08-19T12:05:57;4.75;;;2.83;;
37411;SDS011;23278;52.110;6.050;2022-08-19T12:08:22;3.70;;;2.88;;
37411;SDS011;23278;52.110;6.050;2022-08-19T12:10:49;3.28;;;2.90;;
37411;SDS011;23278;52.110;6.050;2022-08-19T12:13:14;3.95;;;3.55;;
37411;SDS011;23278;52.110;6.050;2022-08-19T12:15:44;5.73;;;4.10;;
37411;SDS011;23278;52.110;6.050;2022-08-19T12:18:11;5.28;;;2.97;;
37411;SDS011;23278;52.110;6.050;2022-08-19T12:20:39;5.65;;;3.10;;
37411;SDS011;23278;52.110;6.050;2022-08-19T12:23:08;5.40;;;3.25;;
37411;SDS011;23278;52.110;6.050;2022-08-19T12:25:35;7.47;;;3.92;;
37411;SDS011;23278;52.110;6.050;2022-08-19T12:28:03;6.10;;;2.85;;
37411;SDS011;23278;52.110;6.050;2022-08-19T12:30:29;6.07;;;3.97;;
37411;SDS011;23278;52.110;6.050;2022-08-19T12:32:55;6.22;;;3.47;;
37411;SDS011;23278;52.110;6.050;2022-08-19T12:35:21;4.25;;;2.67;;
37411;SDS011;23278;52.110;6.050;2022-08-19T12:37:47;3.45;;;2.40;;
37411;SDS011;23278;52.110;6.050;2022-08-19T12:40:16;3.08;;;2.00;;
37411;SDS011;23278;52.110;6.050;2022-08-19T12:42:44;2.55;;;1.75;;
37411;SDS011;23278;52.110;6.050;2022-08-19T12:45:11;3.58;;;2.45;;
37411;SDS011;23278;52.110;6.050;2022-08-19T12:47:38;9.57;;;4.20;;
37411;SDS011;23278;52.110;6.050;2022-08-19T12:50:05;5.70;;;3.63;;
37411;SDS011;23278;52.110;6.050;2022-08-19T12:52:34;4.22;;;2.85;;
37411;SDS011;23278;52.110;6.050;2022-08-19T12:55:03;4.13;;;2.38;;
37411;SDS011;23278;52.110;6.050;2022-08-19T12:57:31;2.77;;;1.77;;
37411;SDS011;23278;52.110;6.050;2022-08-19T13:00:00;5.67;;;2.87;;
37411;SDS011;23278;52.110;6.050;2022-08-19T13:02:37;5.60;;;3.33;;
37411;SDS011;23278;52.110;6.050;2022-08-19T13:05:04;4.85;;;2.13;;
37411;SDS011;23278;52.110;6.050;2022-08-19T13:07:36;4.40;;;3.28;;
37411;SDS011;23278;52.110;6.050;2022-08-19T13:10:05;3.80;;;2.40;;
37411;SDS011;23278;52.110;6.050;2022-08-19T13:12:32;3.28;;;2.28;;
37411;SDS011;23278;52.110;6.050;2022-08-19T13:14:58;3.38;;;2.25;;
37411;SDS011;23278;52.110;6.050;2022-08-19T13:17:24;3.70;;;1.90;;
37411;SDS011;23278;52.110;6.050;2022-08-19T13:19:50;2.80;;;1.95;;
37411;SDS011;23278;52.110;6.050;2022-08-19T13:22:16;4.72;;;2.92;;
37411;SDS011;23278;52.110;6.050;2022-08-19T13:24:42;4.22;;;2.65;;
37411;SDS011;23278;52.110;6.050;2022-08-19T13:27:08;3.92;;;3.03;;
37411;SDS011;23278;52.110;6.050;2022-08-19T13:29:34;3.28;;;2.92;;
37411;SDS011;23278;52.110;6.050;2022-08-19T13:32:19;4.35;;;2.65;;
37411;SDS011;23278;52.110;6.050;2022-08-19T13:35:03;4.43;;;2.67;;
37411;SDS011;23278;52.110;6.050;2022-08-19T13:37:30;5.13;;;3.30;;
37411;SDS011;23278;52.110;6.050;2022-08-19T13:40:10;3.75;;;2.55;;
37411;SDS011;23278;52.110;6.050;2022-08-19T13:42:41;4.28;;;3.08;;
37411;SDS011;23278;52.110;6.050;2022-08-19T13:45:08;7.07;;;3.38;;
37411;SDS011;23278;52.110;6.050;2022-08-19T13:47:35;5.28;;;3.40;;
37411;SDS011;23278;52.110;6.050;2022-08-19T13:50:04;4.13;;;3.72;;
37411;SDS011;23278;52.110;6.050;2022-08-19T13:52:30;4.20;;;3.00;;
37411;SDS011;23278;52.110;6.050;2022-08-19T13:54:56;4.07;;;3.35;;
37411;SDS011;23278;52.110;6.050;2022-08-19T13:57:22;7.55;;;3.90;;
37411;SDS011;23278;52.110;6.050;2022-08-19T13:59:48;4.28;;;2.80;;
37411;SDS011;23278;52.110;6.050;2022-08-19T14:02:14;3.45;;;3.13;;
37411;SDS011;23278;52.110;6.050;2022-08-19T14:04:40;4.13;;;2.92;;
37411;SDS011;23278;52.110;6.050;2022-08-19T14:07:06;2.92;;;2.10;;
37411;SDS011;23278;52.110;6.050;2022-08-19T14:09:32;4.47;;;3.35;;
37411;SDS011;23278;52.110;6.050;2022-08-19T14:11:58;4.32;;;3.22;;
37411;SDS011;23278;52.110;6.050;2022-08-19T14:14:24;6.70;;;4.10;;
37411;SDS011;23278;52.110;6.050;2022-08-19T14:16:50;3.63;;;3.03;;
37411;SDS011;23278;52.110;6.050;2022-08-19T14:19:17;3.67;;;2.92;;
37411;SDS011;23278;52.110;6.050;2022-08-19T14:21:43;5.45;;;3.58;;
37411;SDS011;23278;52.110;6.050;2022-08-19T14:24:08;5.22;;;3.78;;
37411;SDS011;23278;52.110;6.050;2022-08-19T14:26:34;4.30;;;3.10;;
37411;SDS011;23278;52.110;6.050;2022-08-19T14:29:00;4.72;;;3.55;;
37411;SDS011;23278;52.110;6.050;2022-08-19T14:31:26;4.95;;;4.07;;
37411;SDS011;23278;52.110;6.050;2022-08-19T14:33:52;6.75;;;4.07;;
37411;SDS011;23278;52.110;6.050;2022-08-19T14:36:18;8.65;;;5.53;;
37411;SDS011;23278;52.110;6.050;2022-08-19T14:38:46;6.90;;;5.20;;
37411;SDS011;23278;52.110;6.050;2022-08-19T14:41:18;9.13;;;8.18;;
37411;SDS011;23278;52.110;6.050;2022-08-19T14:43:47;7.90;;;6.15;;
37411;SDS011;23278;52.110;6.050;2022-08-19T14:46:16;9.02;;;7.40;;
37411;SDS011;23278;52.110;6.050;2022-08-19T14:51:11;9.10;;;7.47;;
37411;SDS011;23278;52.110;6.050;2022-08-19T14:53:38;13.25;;;9.48;;
37411;SDS011;23278;52.110;6.050;2022-08-19T14:56:08;8.70;;;6.38;;
37411;SDS011;23278;52.110;6.050;2022-08-19T14:58:35;7.82;;;6.85;;
37411;SDS011;23278;52.110;6.050;2022-08-19T15:01:02;8.50;;;7.35;;
37411;SDS011;23278;52.110;6.050;2022-08-19T15:03:28;7.10;;;5.28;;
37411;SDS011;23278;52.110;6.050;2022-08-19T15:05:55;6.32;;;5.57;;
37411;SDS011;23278;52.110;6.050;2022-08-19T15:08:22;7.93;;;6.53;;
37411;SDS011;23278;52.110;6.050;2022-08-19T15:10:51;7.93;;;5.90;;
37411;SDS011;23278;52.110;6.050;2022-08-19T15:13:18;9.20;;;8.23;;